createdAt,value
2023-03-23T15:59:53.996Z,19.29
2023-03-23T16:03:02.158Z,19.17
2023-03-23T16:06:04.659Z,19.16
2023-03-23T16:09:17.320Z,19.10
2023-03-23T16:12:19.322Z,18.96
2023-03-23T16:15:21.541Z,18.85
2023-03-23T16:18:23.370Z,18.66
2023-03-23T16:21:25.590Z,18.60
2023-03-23T16:24:27.549Z,18.50
2023-03-23T16:27:29.436Z,18.46
2023-03-23T16:30:34.979Z,18.37
2023-03-23T16:33:36.885Z,18.24
2023-03-23T16:36:38.814Z,18.15
2023-03-23T16:39:40.702Z,18.02
2023-03-23T16:42:42.949Z,17.91
2023-03-23T16:45:46.496Z,17.78
2023-03-23T16:48:49.382Z,17.63
2023-03-23T16:51:51.559Z,17.45
2023-03-23T16:54:53.766Z,17.22
2023-03-23T16:58:05.451Z,17.07
2023-03-23T17:01:11.881Z,16.95
2023-03-23T17:04:15.726Z,16.79
2023-03-23T17:07:17.615Z,16.70
2023-03-23T17:10:19.639Z,16.62
2023-03-23T17:13:21.750Z,16.46
2023-03-23T17:16:23.578Z,16.32
2023-03-23T17:19:25.781Z,16.12
2023-03-23T17:22:27.833Z,15.91
2023-03-23T17:25:31.059Z,15.80
2023-03-23T17:28:33.366Z,15.59
2023-03-23T17:31:36.541Z,15.42
2023-03-23T17:34:38.630Z,15.28
2023-03-23T17:37:40.468Z,15.21
2023-03-23T17:40:42.631Z,15.14
2023-03-23T17:43:44.532Z,15.04
2023-03-23T17:46:46.375Z,14.96
2023-03-23T17:49:48.845Z,14.87
2023-03-23T17:52:50.936Z,14.75
2023-03-23T17:55:53.393Z,14.70
2023-03-23T17:58:55.331Z,14.65
2023-03-23T18:01:58.126Z,14.60
2023-03-23T18:05:00.293Z,14.53
2023-03-23T18:08:02.215Z,14.43
2023-03-23T18:11:05.120Z,14.28
2023-03-23T18:14:07.359Z,14.19
2023-03-23T18:17:09.884Z,14.05
2023-03-23T18:20:11.998Z,14.03
2023-03-23T18:23:14.374Z,13.95
2023-03-23T18:26:16.961Z,13.79
2023-03-23T18:29:18.995Z,13.68
2023-03-23T18:32:21.454Z,13.61
2023-03-23T18:35:23.898Z,13.53
2023-03-23T18:38:27.082Z,13.45
2023-03-23T18:41:29.309Z,13.39
2023-03-23T18:44:31.502Z,13.30
2023-03-23T18:47:33.965Z,13.22
2023-03-23T18:50:36.507Z,13.15
2023-03-23T18:53:38.561Z,13.08
2023-03-23T18:56:40.797Z,12.98
2023-03-23T18:59:42.697Z,12.90
2023-03-23T19:02:45.093Z,12.87
2023-03-23T19:05:58.912Z,12.86
2023-03-23T19:09:01.579Z,12.71
2023-03-23T19:12:03.575Z,12.71
2023-03-23T19:15:07.106Z,12.70
2023-03-23T19:18:09.231Z,12.71
2023-03-23T19:21:15.948Z,12.76
2023-03-23T19:24:20.350Z,12.75
2023-03-23T19:27:22.570Z,12.75
2023-03-23T19:30:24.676Z,12.82
2023-03-23T19:33:27.468Z,12.99
2023-03-23T19:36:30.354Z,12.93
2023-03-23T19:39:32.980Z,12.77
2023-03-23T19:42:34.891Z,12.63
2023-03-23T19:45:37.170Z,12.40
2023-03-23T19:48:39.970Z,12.21
2023-03-23T19:51:42.210Z,12.00
2023-03-23T19:54:46.503Z,11.92
2023-03-23T19:57:50.601Z,11.75
2023-03-23T20:00:55.359Z,11.68
2023-03-23T20:04:00.015Z,11.62
2023-03-23T20:07:02.774Z,11.67
2023-03-23T20:10:06.241Z,11.63
2023-03-23T20:13:10.905Z,11.59
2023-03-23T20:16:12.761Z,11.62
2023-03-23T20:19:16.514Z,11.63
2023-03-23T20:22:19.296Z,11.62
2023-03-23T20:25:21.644Z,11.61
2023-03-23T20:28:24.219Z,11.60
2023-03-23T20:31:29.581Z,11.64
2023-03-23T20:34:31.803Z,11.58
2023-03-23T20:37:34.774Z,11.56
2023-03-23T20:40:36.807Z,11.44
2023-03-23T20:43:40.398Z,11.41
2023-03-23T20:46:46.309Z,11.41
2023-03-23T20:49:52.613Z,11.30
2023-03-23T20:52:57.413Z,11.26
2023-03-23T20:56:02.004Z,11.23
2023-03-23T20:59:05.847Z,11.30
2023-03-23T21:02:10.473Z,11.44
2023-03-23T21:05:12.826Z,11.54
2023-03-23T21:08:14.816Z,11.55
2023-03-23T21:11:19.373Z,11.55
2023-03-23T21:14:21.532Z,11.53
2023-03-23T21:17:23.634Z,11.47
2023-03-23T21:20:25.966Z,11.23
2023-03-23T21:23:29.599Z,11.05
2023-03-23T21:26:32.230Z,10.89
2023-03-23T21:29:34.221Z,10.76
2023-03-23T21:32:36.407Z,10.65
2023-03-23T21:35:38.651Z,10.64
2023-03-23T21:38:41.060Z,10.67
2023-03-23T21:41:43.041Z,10.71
2023-03-23T21:44:44.871Z,10.70
2023-03-23T21:47:49.637Z,10.64
2023-03-23T21:50:51.558Z,10.65
2023-03-23T21:53:54.580Z,10.53
2023-03-23T21:56:58.335Z,10.39
2023-03-23T22:00:00.633Z,10.19
2023-03-23T22:03:04.227Z,10.08
2023-03-23T22:06:15.273Z,9.92
2023-03-23T22:09:17.278Z,9.82
2023-03-23T22:12:19.382Z,9.73
2023-03-23T22:15:27.673Z,9.43
2023-03-23T22:18:29.912Z,9.51
2023-03-23T22:21:31.926Z,9.56
2023-03-23T22:24:33.848Z,9.61
2023-03-23T22:27:35.724Z,9.72
2023-03-23T22:30:37.678Z,9.70
2023-03-23T22:33:40.091Z,9.63
2023-03-23T22:36:45.140Z,9.44
2023-03-23T22:39:47.109Z,9.46
2023-03-23T22:42:49.234Z,9.45
2023-03-23T22:45:52.173Z,9.57
2023-03-23T22:48:54.502Z,9.42
2023-03-23T22:51:56.692Z,9.43
2023-03-23T22:54:58.605Z,9.33
2023-03-23T22:58:01.913Z,9.43
2023-03-23T23:01:07.058Z,9.46
2023-03-23T23:04:09.135Z,9.43
2023-03-23T23:07:14.290Z,9.50
2023-03-23T23:10:16.373Z,9.50
2023-03-23T23:13:19.043Z,9.42
2023-03-23T23:16:26.326Z,9.45
2023-03-23T23:19:28.252Z,9.38
2023-03-23T23:22:30.071Z,9.40
2023-03-23T23:25:32.574Z,9.30
2023-03-23T23:28:35.004Z,9.35
2023-03-23T23:31:36.885Z,9.20
2023-03-23T23:34:38.774Z,9.15
2023-03-23T23:37:40.598Z,9.04
2023-03-23T23:40:43.726Z,9.05
2023-03-23T23:43:46.023Z,8.89
2023-03-23T23:46:47.835Z,8.93
2023-03-23T23:49:50.352Z,8.92
2023-03-23T23:52:52.361Z,8.79
2023-03-23T23:55:54.245Z,8.81
2023-03-23T23:58:56.446Z,8.78
